Vidal Junction, California
Current Conditions -  °F | °C
As of 9:52 PM on Thursday 27 Nov 2014 (Local Time) from KBLH Reporting Station
Clear Clear  
Wind Chill: 57°   Ceiling: Unl
Heat Index: 57°   Visibility: 10mi
Dew Point: 21°   Wind: 5mph
Humidity: 25%   Direction: 240°WSW
Pressure: 30.06"   Gusts: NA
Location:  34.1406°N, 114.775°W
Report Text: KBLH 280552Z AUTO 24004KT 10SM CLR 14/M06 A3006 RMK AO2 SLP177 T01391061 10250 20133 50002
Loading
Personal Weather Stations






























Interactive Weather Map New forecast layout! Learn more

10-Day Weather Forecast

Advertisements
Track Severe Weather on mobile